Relevés horaires Beauvechain (Belgique)


Relevés horaires à Beauvechain - Jeudi 23 Mars 2017
Heure UTC1 Température [°C] Vent [km/h] Hum. [%] Pres.4 [hPa] Visi. [Km] Nébu. [octa] Préc.5 [mm] Cond.
2m. Res. Ros. Dir.2 Vit. Moy. Raf.3
23:00 8.0 6.8 4.1 NE 7.4 -- 14.8 76 1020.7(2.7/3h) 14 -- -- --
22:00 8.6 7.1 3.9 ENE 9.3 -- 16.7 72 1019.8(2.7/3h) 18 -- -- --
21:00 9.6 8 4.0 ENE 11.1 -- 16.7 68 1018.7(2.2/3h) 18 -- -- --
20:00 10.2 9 4.1 NE 9.3 -- 13.0 66 1018(2.5/3h) 20 -- -- --
19:00 10.8 10.1 4.4 NE 7.4 -- 9.3 65 1016.8(1.9/3h) 20 -- -- --
18:00 12.1 11.6 4.3 NE 7.4 -- 14.8 59 1016.2(1.4/3h) 20 -- -- --
17:00 13.7 12.9 4.2 ENE 11.1 -- 14.8 53 1015.2(0.4/3h) 20 2/8 -- --
16:00 14.3 13.6 4.2 NE 11.1 -- 14.8 51 1014.7(0.3/3h) 20 2/8 -- --
15:00 14.1 13.4 4.4 ENE 11.1 -- 14.8 52 1014.6(-0.1/3h) 20 3/8 -- --
14:00 13.5 12.9 4.9 ENE 9.3 -- 14.8 56 1014.7(0.2/3h) 20 3/8 -- --
13:00 12.8 11.8 5.2 ENE 11.1 -- 14.8 60 1014.6(0.2/3h) 20 3/8 -- --
12:00 11.4 10.8 4.7 E 7.4 -- 14.8 63 1014.8(0.3/3h) 15 2/8 -- --
11:00 10.7 10 5.3 ENE 7.4 -- 14.8 69 1014.7(0.2/3h) 15 2/8 -- --
10:00 9.1 8.1 5.1 ENE 7.4 -- 11.1 76 1014.5(0.2/3h) 15 2/8 -- --
09:00 7.4 6.1 4.0 E 7.4 -- 11.1 79 1014.7(1.0/3h) 8 2/8 -- --
08:00 5.3 3.6 3.3 E 7.4 -- 11.1 87 1014.7(1.1/3h) 8 2/8 -- --
07:00 3.5 3.5 2.1 ENE 3.7 -- 7.4 91 1014.6(1.2/3h) 6 4/8 -- --
06:00 2.4 2.4 1.6 ENE 3.7 -- 7.4 94 1014(0.4/3h) 5 3/8 -- Du brouillard ou du brouillard glacé (plus correctement designé sous le nom de brume) est observé et la visibilité n'est ni inférieure à 5/8 de mille ni supérieure à 6 milles
05:00 2.9 2.9 1.8 E 3.7 -- 7.4 92 1013.7(0.0/3h) 6 -- -- --
04:00 3.0 1.6 1.9 E 5.6 -- 7.4 92 1013.3(-0.3/3h) 6 -- -- --
03:00 3.5 3.5 2.0 E 3.7 -- 7.4 90 1013.5(0.1/3h) 8 -- -- --
02:00 4.5 4.5 2.2 E 3.7 -- 7.4 85 1013.6(0.0/3h) 11 -- -- --
01:00 5.1 5.1 2.3 ESE 3.7 -- 7.4 82 1013.6(0.0/3h) 15 -- -- --
00:00 5.4 5.4 2.1 ESE 3.7 -- 11.1 79 1013.2(0.0/3h) 18 -- -- --

1 Coordinated Universal Time. Actuellement il est 02:00 locale et 01:00 UTC.

2 Le vent souffle depuis la direction indiquée vers la direction oposée.

3 Les rafales max. sont disponible 40 min après l'heure du relevé.

4 Pour les stations d'altitude (plus de 600m) le géopotentiel du niveau le plus proche de la pression obligatoire est indiqué.

5 Les stations disposant d'un diffuseur peuvent indiquer "trace". Cela signifie que des précipitations ont touchés le sol mais que la quantité est inférieure à 0.1 mm.

Récapitulatif de la journée
Température [°C] Vent [km/h] Ensoleillement4 [h] Precipitations totale5 [mm] Pression [Hpa]
Min1 Max.2 Moy.3 Max. Min Max.
2.0 14.5 0 16.7 0 h 0 min 0 1013.2 1020.7

1 Température minimale relevée entre 18:00 UTC la veille et 18:00 UTC le jour donné.

2 Température maximale relevée entre 06:00 UTC le jour donné et 06:00 UTC le lendemain.

3 Vent moyen de la journée basé sur les relevés horaires.

4 Ensoleillement en heures relevé entre 06:00 UTC la veille et 06:00 UTC le jour donné.

5 Précipitations totales tombées entre 06:00 UTC la jour donné et 06:00 UTC le lendemain.

Graphiques horaires